createdAt,value
2022-12-31T00:01:12.089Z,2.53
2022-12-31T00:03:41.320Z,4.47
2022-12-31T00:06:22.922Z,3.28
2022-12-31T00:08:52.711Z,1.60
2022-12-31T00:11:22.357Z,2.30
2022-12-31T00:13:52.033Z,2.25
2022-12-31T00:16:24.531Z,4.70
2022-12-31T00:18:59.283Z,2.63
2022-12-31T00:21:29.632Z,2.35
2022-12-31T00:23:58.983Z,3.40
2022-12-31T00:26:29.610Z,2.38
2022-12-31T00:28:59.931Z,2.83
2022-12-31T00:31:32.394Z,2.65
2022-12-31T00:34:01.612Z,2.90
2022-12-31T00:36:32.377Z,2.97
2022-12-31T00:39:03.121Z,2.00
2022-12-31T00:41:32.449Z,2.40
2022-12-31T00:44:01.576Z,3.08
2022-12-31T00:46:31.969Z,2.67
2022-12-31T00:49:00.846Z,3.30
2022-12-31T00:51:29.938Z,3.25
2022-12-31T00:53:59.573Z,3.60
2022-12-31T00:56:31.062Z,3.13
2022-12-31T00:59:01.012Z,1.92
2022-12-31T01:01:33.069Z,2.90
2022-12-31T01:04:03.613Z,3.47
2022-12-31T01:06:32.559Z,1.38
2022-12-31T01:09:01.343Z,1.52
2022-12-31T01:11:30.237Z,2.70
2022-12-31T01:14:01.185Z,3.50
2022-12-31T01:16:33.147Z,2.60
2022-12-31T01:19:04.656Z,3.90
2022-12-31T01:21:34.436Z,2.08
2022-12-31T01:24:03.188Z,2.90
2022-12-31T01:26:32.545Z,2.72
2022-12-31T01:29:01.524Z,1.30
2022-12-31T01:31:30.337Z,2.97
2022-12-31T01:34:00.838Z,3.33
2022-12-31T01:36:31.599Z,2.70
2022-12-31T01:39:01.984Z,2.05
2022-12-31T01:41:32.617Z,2.33
2022-12-31T01:44:03.348Z,3.45
2022-12-31T01:46:39.866Z,1.88
2022-12-31T01:49:18.158Z,2.45
2022-12-31T01:51:51.008Z,4.10
2022-12-31T01:54:22.353Z,2.78
2022-12-31T01:56:53.843Z,2.35
2022-12-31T01:59:25.113Z,3.88
2022-12-31T02:01:54.312Z,2.85
2022-12-31T02:04:26.275Z,3.60
2022-12-31T02:06:58.718Z,2.25
2022-12-31T02:09:27.503Z,3.00
2022-12-31T02:11:56.090Z,2.05
2022-12-31T02:14:28.207Z,4.05
2022-12-31T02:17:03.246Z,1.75
2022-12-31T02:20:07.945Z,1.98
2022-12-31T02:23:06.682Z,1.98
2022-12-31T02:25:56.304Z,1.48
2022-12-31T02:28:45.529Z,1.83
2022-12-31T02:31:19.574Z,2.47
2022-12-31T02:33:53.178Z,2.72
2022-12-31T02:36:27.573Z,1.85
2022-12-31T02:38:57.254Z,1.98
2022-12-31T02:41:43.313Z,3.08
2022-12-31T02:44:24.068Z,2.20
2022-12-31T02:47:04.373Z,1.95
2022-12-31T02:49:39.999Z,1.23
2022-12-31T02:52:16.282Z,1.75
2022-12-31T02:54:54.726Z,4.35
2022-12-31T02:57:31.732Z,2.03
2022-12-31T03:00:22.529Z,3.33
2022-12-31T03:02:54.028Z,1.70
2022-12-31T03:05:27.562Z,3.05
2022-12-31T03:07:56.313Z,1.80
2022-12-31T03:10:25.192Z,1.92
2022-12-31T03:12:53.036Z,1.95
2022-12-31T03:15:23.686Z,2.05
2022-12-31T03:17:56.740Z,2.30
2022-12-31T03:20:46.518Z,1.60
2022-12-31T03:23:19.120Z,1.40
2022-12-31T03:25:46.767Z,3.20
2022-12-31T03:28:18.876Z,1.50
2022-12-31T03:30:49.808Z,2.05
2022-12-31T03:33:20.561Z,3.67
2022-12-31T03:35:50.802Z,2.03
2022-12-31T03:38:20.054Z,3.15
2022-12-31T03:40:50.476Z,1.83
2022-12-31T03:43:20.594Z,2.20
2022-12-31T03:45:51.533Z,1.90
2022-12-31T03:48:22.469Z,1.63
2022-12-31T03:50:51.612Z,2.05
2022-12-31T03:53:20.543Z,1.67
2022-12-31T03:55:53.261Z,1.70
2022-12-31T03:58:23.043Z,3.25
2022-12-31T04:00:52.370Z,1.30
2022-12-31T04:03:22.584Z,1.27
2022-12-31T04:05:55.445Z,1.58
2022-12-31T04:08:24.423Z,2.10
2022-12-31T04:10:53.080Z,1.70
2022-12-31T04:13:21.692Z,1.65
2022-12-31T04:15:52.190Z,1.88
2022-12-31T04:18:22.175Z,1.77
2022-12-31T04:20:50.873Z,1.25
2022-12-31T04:23:19.681Z,2.47
2022-12-31T04:25:48.429Z,1.10
2022-12-31T04:28:17.119Z,1.50
2022-12-31T04:30:45.831Z,1.27
2022-12-31T04:33:14.677Z,1.58
2022-12-31T04:35:45.036Z,1.13
2022-12-31T04:38:13.663Z,1.77
2022-12-31T04:40:56.358Z,2.22
2022-12-31T04:43:25.454Z,1.70
2022-12-31T04:45:54.155Z,2.00
2022-12-31T04:48:22.765Z,1.98
2022-12-31T04:50:53.298Z,2.45
2022-12-31T04:53:22.104Z,2.17
2022-12-31T04:55:50.737Z,2.42
2022-12-31T04:58:19.455Z,1.13
2022-12-31T05:00:50.111Z,1.15
2022-12-31T05:03:20.142Z,1.02
2022-12-31T05:05:50.226Z,3.03
2022-12-31T05:08:20.837Z,1.58
2022-12-31T05:10:51.515Z,2.03
2022-12-31T05:13:20.203Z,0.80
2022-12-31T05:15:49.004Z,1.00
2022-12-31T05:18:18.548Z,1.60
2022-12-31T05:20:47.589Z,2.78
2022-12-31T05:23:17.536Z,1.08
2022-12-31T05:25:49.612Z,1.25
2022-12-31T05:28:18.841Z,0.93
2022-12-31T05:30:50.375Z,1.27
2022-12-31T05:33:19.525Z,1.00
2022-12-31T05:35:48.148Z,1.20
2022-12-31T05:38:16.798Z,0.80
2022-12-31T05:40:45.408Z,0.80
2022-12-31T05:43:17.956Z,1.08
2022-12-31T05:45:46.641Z,1.00
2022-12-31T05:48:15.326Z,1.30
2022-12-31T05:50:44.762Z,1.48
2022-12-31T05:53:13.397Z,1.60
2022-12-31T05:55:42.072Z,1.08
2022-12-31T05:58:10.756Z,2.78
2022-12-31T06:00:40.885Z,1.00
2022-12-31T06:03:09.732Z,1.70
2022-12-31T06:05:41.988Z,1.15
2022-12-31T06:08:11.084Z,2.17
2022-12-31T06:10:40.641Z,0.82
2022-12-31T06:13:10.358Z,1.70
2022-12-31T06:15:41.808Z,1.92
2022-12-31T06:18:10.485Z,1.25
2022-12-31T06:20:39.488Z,1.58
2022-12-31T06:23:08.274Z,1.45
2022-12-31T06:25:38.196Z,1.30
2022-12-31T06:28:07.341Z,1.13
2022-12-31T06:30:35.975Z,1.30
2022-12-31T06:33:05.983Z,0.80
2022-12-31T06:35:34.601Z,1.23
2022-12-31T06:38:03.184Z,1.00
2022-12-31T06:40:31.791Z,0.95
2022-12-31T06:43:00.665Z,2.42
2022-12-31T06:45:29.432Z,0.98
2022-12-31T06:47:58.187Z,0.80
2022-12-31T06:50:28.199Z,1.58
2022-12-31T06:52:56.808Z,1.10
2022-12-31T06:55:26.252Z,1.15
2022-12-31T06:57:55.463Z,1.33
2022-12-31T07:00:24.766Z,1.35
2022-12-31T07:03:09.960Z,1.02
2022-12-31T07:05:47.233Z,1.35
2022-12-31T07:08:42.506Z,1.25
2022-12-31T07:11:16.905Z,1.13
2022-12-31T07:14:00.726Z,1.23
2022-12-31T07:16:41.626Z,1.10
2022-12-31T07:19:24.856Z,1.55
2022-12-31T07:21:57.418Z,1.63
2022-12-31T07:24:26.840Z,1.00
2022-12-31T07:27:08.605Z,1.50
2022-12-31T07:29:51.279Z,1.77
2022-12-31T07:32:34.047Z,1.13
2022-12-31T07:35:10.997Z,1.13
2022-12-31T07:37:50.667Z,1.02
2022-12-31T07:40:22.630Z,2.53
2022-12-31T07:43:06.211Z,0.90
2022-12-31T07:45:41.902Z,1.00
2022-12-31T07:48:22.601Z,1.45
2022-12-31T07:50:52.602Z,1.52
2022-12-31T07:53:23.837Z,1.65
2022-12-31T07:55:57.493Z,1.33
2022-12-31T07:58:39.296Z,1.75
2022-12-31T08:01:12.429Z,1.50
2022-12-31T08:03:54.709Z,1.23
2022-12-31T08:06:35.665Z,1.58
2022-12-31T08:09:25.235Z,1.85
2022-12-31T08:11:58.564Z,1.45
2022-12-31T08:14:29.496Z,1.45
2022-12-31T08:16:59.351Z,2.35
2022-12-31T08:19:30.826Z,1.83
2022-12-31T08:22:23.899Z,3.20
2022-12-31T08:25:09.530Z,1.00
2022-12-31T08:27:47.137Z,1.77
2022-12-31T08:30:18.410Z,1.83
2022-12-31T08:32:54.880Z,1.20
2022-12-31T08:35:37.631Z,1.95
2022-12-31T08:38:16.758Z,2.10
2022-12-31T08:40:53.537Z,1.65
2022-12-31T08:43:34.899Z,1.00
2022-12-31T08:46:06.212Z,1.25
2022-12-31T08:48:40.925Z,1.63
2022-12-31T08:51:15.799Z,1.80
2022-12-31T08:53:45.320Z,2.90
2022-12-31T08:56:29.894Z,1.70
2022-12-31T08:59:16.396Z,1.80
2022-12-31T09:01:58.539Z,2.08
2022-12-31T09:04:31.575Z,1.50
2022-12-31T09:07:02.978Z,2.33
2022-12-31T09:09:41.661Z,1.83
2022-12-31T09:12:19.789Z,1.60
2022-12-31T09:14:51.217Z,1.05
2022-12-31T09:17:44.898Z,1.58
2022-12-31T09:20:21.116Z,1.10
2022-12-31T09:22:50.246Z,1.10
2022-12-31T09:25:21.519Z,2.42
2022-12-31T09:28:06.267Z,1.58
2022-12-31T09:30:43.579Z,1.45
2022-12-31T09:33:22.556Z,1.52
2022-12-31T09:35:55.878Z,1.35
2022-12-31T09:38:29.919Z,2.17
2022-12-31T09:41:15.587Z,1.90
2022-12-31T09:44:13.850Z,2.95
2022-12-31T09:47:07.896Z,2.33
2022-12-31T09:50:29.859Z,1.50
2022-12-31T09:53:28.005Z,1.17
2022-12-31T09:56:02.213Z,1.85
2022-12-31T09:58:42.857Z,2.58
2022-12-31T10:01:37.250Z,2.15
2022-12-31T10:04:39.830Z,2.45
2022-12-31T10:07:26.066Z,1.90
2022-12-31T10:10:07.798Z,2.20
2022-12-31T10:13:03.353Z,1.73
2022-12-31T10:16:04.257Z,2.15
2022-12-31T10:19:05.818Z,1.55
2022-12-31T10:21:47.613Z,1.85
2022-12-31T10:24:31.552Z,1.75
2022-12-31T10:27:12.987Z,1.35
2022-12-31T10:29:47.824Z,1.98
2022-12-31T10:32:24.982Z,1.23
2022-12-31T10:35:10.638Z,2.55
2022-12-31T10:37:47.190Z,1.35
2022-12-31T10:40:26.030Z,2.15
2022-12-31T10:43:19.004Z,1.40
2022-12-31T10:46:23.144Z,0.70
2022-12-31T10:49:22.872Z,1.75
2022-12-31T10:52:24.813Z,0.95
2022-12-31T10:55:30.120Z,1.13
2022-12-31T10:58:35.899Z,1.45
2022-12-31T11:01:12.024Z,1.92
2022-12-31T11:04:26.965Z,1.38
2022-12-31T11:07:15.272Z,1.13
2022-12-31T11:10:11.407Z,1.65
2022-12-31T11:13:14.482Z,1.17
2022-12-31T11:16:08.092Z,1.27
2022-12-31T11:18:44.940Z,1.40
2022-12-31T11:21:28.488Z,1.58
2022-12-31T11:24:07.191Z,0.90
2022-12-31T11:26:48.583Z,1.30
2022-12-31T11:29:34.155Z,0.93
2022-12-31T11:32:16.875Z,1.60
2022-12-31T11:35:17.235Z,1.48
2022-12-31T11:37:49.495Z,2.33
2022-12-31T11:40:44.859Z,0.60
2022-12-31T11:43:24.220Z,1.08
2022-12-31T11:46:22.308Z,2.13
2022-12-31T11:49:01.876Z,1.17
2022-12-31T11:51:50.898Z,1.00
2022-12-31T11:54:49.517Z,1.00
2022-12-31T11:57:27.299Z,1.52
2022-12-31T12:00:00.940Z,1.52
2022-12-31T12:02:36.629Z,1.88
2022-12-31T12:05:11.125Z,2.00
2022-12-31T12:07:40.475Z,0.85
2022-12-31T12:10:29.164Z,1.40
2022-12-31T12:13:12.983Z,1.88
2022-12-31T12:15:46.519Z,2.22
2022-12-31T12:18:29.267Z,2.45
2022-12-31T12:21:11.285Z,1.25
2022-12-31T12:23:41.069Z,1.30
2022-12-31T12:26:27.647Z,2.50
2022-12-31T12:29:01.643Z,1.88
2022-12-31T12:31:30.765Z,1.25
2022-12-31T12:33:59.428Z,1.27
2022-12-31T12:36:28.119Z,2.38
2022-12-31T12:39:03.121Z,1.38
2022-12-31T12:41:32.395Z,2.08
2022-12-31T12:44:07.354Z,2.00
2022-12-31T12:46:43.554Z,2.75
2022-12-31T12:49:24.226Z,1.63
2022-12-31T12:52:11.910Z,3.03
2022-12-31T12:54:52.533Z,2.53
2022-12-31T12:57:26.337Z,2.70
2022-12-31T13:00:07.836Z,2.85
2022-12-31T13:03:02.884Z,2.50
2022-12-31T13:05:42.681Z,3.30
2022-12-31T13:08:22.071Z,2.10
2022-12-31T13:11:02.644Z,2.08
2022-12-31T13:13:43.322Z,2.70
2022-12-31T13:16:22.544Z,1.67
2022-12-31T13:19:00.065Z,3.75
2022-12-31T13:21:44.383Z,2.38
2022-12-31T13:24:24.219Z,1.38
2022-12-31T13:27:02.196Z,2.40
2022-12-31T13:29:34.445Z,3.08
2022-12-31T13:32:07.943Z,1.85
2022-12-31T13:34:41.540Z,2.67
2022-12-31T13:37:23.771Z,1.95
2022-12-31T13:39:58.131Z,3.15
2022-12-31T13:42:34.045Z,2.67
2022-12-31T13:45:05.481Z,2.25
2022-12-31T13:47:42.921Z,1.50
2022-12-31T13:50:20.278Z,3.03
2022-12-31T13:52:55.111Z,2.00
2022-12-31T13:55:27.823Z,2.88
2022-12-31T13:58:02.699Z,2.78
2022-12-31T14:00:38.989Z,3.28
2022-12-31T14:03:18.124Z,2.55
2022-12-31T14:05:53.910Z,2.45
2022-12-31T14:08:22.700Z,2.70
2022-12-31T14:11:03.326Z,2.13
2022-12-31T14:13:54.826Z,2.47
2022-12-31T14:16:29.673Z,1.98
2022-12-31T14:19:08.219Z,2.25
2022-12-31T14:21:43.620Z,3.20
2022-12-31T14:24:16.094Z,3.42
2022-12-31T14:26:50.206Z,2.75
2022-12-31T14:29:32.607Z,2.15
2022-12-31T14:32:35.350Z,3.25
2022-12-31T14:35:19.831Z,3.88
2022-12-31T14:37:58.174Z,2.60
2022-12-31T14:40:30.181Z,3.35
2022-12-31T14:43:15.060Z,4.10
2022-12-31T14:45:54.377Z,2.30
2022-12-31T14:48:34.400Z,2.72
2022-12-31T14:51:05.490Z,3.88
2022-12-31T14:53:34.321Z,3.00
2022-12-31T14:56:06.283Z,5.00
2022-12-31T14:58:37.405Z,4.78
2022-12-31T15:01:09.112Z,4.88
2022-12-31T15:03:46.054Z,4.15
2022-12-31T15:06:44.650Z,3.63
2022-12-31T15:09:24.628Z,2.90
2022-12-31T15:12:21.811Z,3.45
2022-12-31T15:15:10.970Z,4.38
2022-12-31T15:17:53.564Z,3.78
2022-12-31T15:20:49.264Z,2.92
2022-12-31T15:23:26.002Z,4.53
2022-12-31T15:26:00.649Z,3.40
2022-12-31T15:28:34.317Z,3.45
2022-12-31T15:31:17.879Z,2.50
2022-12-31T15:33:57.684Z,3.50
2022-12-31T15:36:30.215Z,3.20
2022-12-31T15:39:26.895Z,6.45
2022-12-31T15:44:51.892Z,6.50
2022-12-31T15:47:29.537Z,4.07
2022-12-31T15:50:02.659Z,2.70
2022-12-31T15:52:40.795Z,3.38
2022-12-31T15:55:24.154Z,3.63
2022-12-31T15:57:57.043Z,3.15
2022-12-31T16:00:32.381Z,3.85
2022-12-31T16:03:01.526Z,3.25
2022-12-31T16:05:35.580Z,3.75
2022-12-31T16:08:05.508Z,1.77
2022-12-31T16:10:37.123Z,2.00
2022-12-31T16:13:08.826Z,2.35
2022-12-31T16:15:38.520Z,4.47
2022-12-31T16:18:18.976Z,5.55
2022-12-31T16:20:52.118Z,3.97
2022-12-31T16:23:23.646Z,3.92
2022-12-31T16:25:54.584Z,4.45
2022-12-31T16:28:29.883Z,3.95
2022-12-31T16:31:02.450Z,5.15
2022-12-31T16:33:32.586Z,5.68
2022-12-31T16:36:02.945Z,4.72
2022-12-31T16:38:36.666Z,3.22
2022-12-31T16:41:19.160Z,3.13
2022-12-31T16:43:51.445Z,4.35
2022-12-31T16:46:26.358Z,3.67
2022-12-31T16:48:58.325Z,3.10
2022-12-31T16:51:31.063Z,2.65
2022-12-31T16:54:00.310Z,3.47
2022-12-31T16:56:34.369Z,3.25
2022-12-31T16:59:07.054Z,4.70
2022-12-31T17:01:38.476Z,5.10
2022-12-31T17:04:11.938Z,5.45
2022-12-31T17:06:41.303Z,4.93
2022-12-31T17:09:15.325Z,4.82
2022-12-31T17:11:45.591Z,4.85
2022-12-31T17:14:17.707Z,3.83
2022-12-31T17:17:03.690Z,2.92
2022-12-31T17:19:40.535Z,3.15
2022-12-31T17:22:14.486Z,1.80
2022-12-31T17:24:43.395Z,2.03
2022-12-31T17:27:12.263Z,0.80
2022-12-31T17:29:42.422Z,1.17
2022-12-31T17:32:31.184Z,1.45
2022-12-31T17:34:59.922Z,1.70
2022-12-31T17:37:30.201Z,1.65
2022-12-31T17:40:25.059Z,1.63
2022-12-31T17:42:50.951Z,1.38
2022-12-31T17:45:23.068Z,1.42
2022-12-31T17:47:54.108Z,1.85
2022-12-31T17:50:26.206Z,2.35
2022-12-31T17:52:58.517Z,1.40
2022-12-31T17:55:29.688Z,1.45
2022-12-31T17:58:04.177Z,1.95
2022-12-31T18:00:34.862Z,2.22
2022-12-31T18:03:03.605Z,2.65
2022-12-31T18:05:32.328Z,2.35
2022-12-31T18:08:01.012Z,2.95
2022-12-31T18:10:33.062Z,2.15
2022-12-31T18:13:02.020Z,2.92
2022-12-31T18:15:30.716Z,2.65
2022-12-31T18:18:01.009Z,2.42
2022-12-31T18:20:29.923Z,2.83
2022-12-31T18:22:58.596Z,3.80
2022-12-31T18:25:27.282Z,3.05
2022-12-31T18:27:55.949Z,2.45
2022-12-31T18:30:24.583Z,3.45
2022-12-31T18:32:53.511Z,4.25
2022-12-31T18:38:14.441Z,4.10
2022-12-31T18:40:51.195Z,2.88
2022-12-31T18:43:20.766Z,3.25
2022-12-31T18:45:50.457Z,4.15
2022-12-31T18:48:19.841Z,2.63
2022-12-31T18:50:51.113Z,4.28
2022-12-31T18:53:21.778Z,4.95
2022-12-31T18:55:52.881Z,3.78
2022-12-31T18:58:22.786Z,3.63
2022-12-31T19:00:53.134Z,4.90
2022-12-31T19:03:23.963Z,3.47
2022-12-31T19:05:54.287Z,3.92
2022-12-31T19:08:24.555Z,4.90
2022-12-31T19:10:53.908Z,4.80
2022-12-31T19:13:23.377Z,3.63
2022-12-31T19:15:53.614Z,2.92
2022-12-31T19:18:22.517Z,3.05
2022-12-31T19:20:54.253Z,1.50
2022-12-31T19:23:23.248Z,4.32
2022-12-31T19:25:52.078Z,2.83
2022-12-31T19:28:22.703Z,2.97
2022-12-31T19:30:51.893Z,2.20
2022-12-31T19:33:22.969Z,3.28
2022-12-31T19:35:51.680Z,3.08
2022-12-31T19:38:25.495Z,1.90
2022-12-31T19:40:55.131Z,5.10
2022-12-31T19:43:25.011Z,3.78
2022-12-31T19:45:53.895Z,3.50
2022-12-31T19:48:32.541Z,2.83
2022-12-31T19:51:02.166Z,1.35
2022-12-31T19:53:32.286Z,3.47
2022-12-31T19:56:01.000Z,3.30
2022-12-31T19:58:29.630Z,3.30
2022-12-31T20:01:02.703Z,3.28
2022-12-31T20:03:33.299Z,3.58
2022-12-31T20:06:04.207Z,1.25
2022-12-31T20:08:36.844Z,2.72
2022-12-31T20:11:13.660Z,3.20
2022-12-31T20:13:43.311Z,4.05
2022-12-31T20:16:15.254Z,3.80
2022-12-31T20:18:47.893Z,4.32
2022-12-31T20:21:20.863Z,2.95
2022-12-31T20:23:51.983Z,3.88
2022-12-31T20:26:22.079Z,3.70
2022-12-31T20:28:50.980Z,5.13
2022-12-31T20:31:21.996Z,3.75
2022-12-31T20:33:50.704Z,4.82
2022-12-31T20:36:21.300Z,3.97
2022-12-31T20:38:51.746Z,4.40
2022-12-31T20:41:22.500Z,4.57
2022-12-31T20:43:51.760Z,4.45
2022-12-31T20:46:22.879Z,3.22
2022-12-31T20:48:53.230Z,5.00
2022-12-31T20:51:23.152Z,3.92
2022-12-31T20:53:55.251Z,2.65
2022-12-31T20:56:25.767Z,5.07
2022-12-31T20:58:54.598Z,2.45
2022-12-31T21:01:23.773Z,2.80
2022-12-31T21:04:05.019Z,2.80
2022-12-31T21:06:36.602Z,3.60
2022-12-31T21:09:08.857Z,2.95
2022-12-31T21:11:55.410Z,4.93
2022-12-31T21:14:24.149Z,4.75
2022-12-31T21:16:54.950Z,3.72
2022-12-31T21:19:23.626Z,4.93
2022-12-31T21:21:52.254Z,4.05
2022-12-31T21:24:24.192Z,3.47
2022-12-31T21:26:53.385Z,3.05
2022-12-31T21:29:22.674Z,4.78
2022-12-31T21:31:51.459Z,2.50
2022-12-31T21:34:20.152Z,2.60
2022-12-31T21:36:48.901Z,2.92
2022-12-31T21:39:17.605Z,2.28
2022-12-31T21:41:53.725Z,3.22
2022-12-31T21:44:23.442Z,3.88
2022-12-31T21:47:33.378Z,2.30
2022-12-31T21:49:45.254Z,4.32
2022-12-31T21:52:30.750Z,4.10
2022-12-31T21:55:18.555Z,3.47
2022-12-31T21:58:24.709Z,3.13
2022-12-31T22:00:57.500Z,2.78
2022-12-31T22:03:27.936Z,4.20
2022-12-31T22:06:00.455Z,2.60
2022-12-31T22:08:30.405Z,4.30
2022-12-31T22:10:59.354Z,4.43
2022-12-31T22:13:29.538Z,4.03
2022-12-31T22:16:04.792Z,2.70
2022-12-31T22:18:38.728Z,2.25
2022-12-31T22:21:15.730Z,2.75
2022-12-31T22:23:48.252Z,3.15
2022-12-31T22:26:18.106Z,3.75
2022-12-31T22:28:48.539Z,1.73
2022-12-31T22:31:18.752Z,1.58
2022-12-31T22:33:47.639Z,3.40
2022-12-31T22:36:19.467Z,1.90
2022-12-31T22:38:49.083Z,2.00
2022-12-31T22:41:19.609Z,2.55
2022-12-31T22:43:51.349Z,1.58
2022-12-31T22:46:22.292Z,2.30
2022-12-31T22:48:51.210Z,2.50
2022-12-31T22:51:20.886Z,2.50
2022-12-31T22:53:50.212Z,2.35
2022-12-31T22:56:20.161Z,2.15
2022-12-31T22:58:50.233Z,1.92
2022-12-31T23:01:20.643Z,2.70
2022-12-31T23:03:50.886Z,3.05
2022-12-31T23:06:19.953Z,5.40
2022-12-31T23:09:02.632Z,5.85
2022-12-31T23:11:31.306Z,9.25
2022-12-31T23:14:18.922Z,6.45
2022-12-31T23:17:29.755Z,6.90
2022-12-31T23:20:11.102Z,4.03
2022-12-31T23:22:57.229Z,6.10
2022-12-31T23:25:25.870Z,3.70
2022-12-31T23:27:54.586Z,2.63
2022-12-31T23:30:24.620Z,2.95
2022-12-31T23:32:53.200Z,1.77
2022-12-31T23:35:22.254Z,2.33
2022-12-31T23:37:50.966Z,2.65
2022-12-31T23:40:21.894Z,3.83
2022-12-31T23:42:51.074Z,4.20
2022-12-31T23:45:19.736Z,3.20
2022-12-31T23:47:49.793Z,1.98
2022-12-31T23:50:18.726Z,3.13
2022-12-31T23:52:47.804Z,2.65
2022-12-31T23:55:16.590Z,2.88
2022-12-31T23:57:45.365Z,2.25
